Time;durP1;ratioP1;P1;durP2;ratioP2;P2;SDS_P1;SDS_P2;PMS_P1;PMS_P2;Temp;Humidity;BMP_temperature;BMP_pressure;BME280_temperature;BME280_humidity;BME280_pressure;Samples;Min_cycle;Max_cycle;Signal;HPM_P1;HPM_P2
2022/03/09 00:02:15;;;;;;;2.90;1.83;;;4.30;33.10;;;;;;5074585;28;20259;-50
2022/03/09 00:04:41;;;;;;;4.83;2.83;;;4.30;33.50;;;;;;5074878;28;20450;-50
2022/03/09 00:07:06;;;;;;;6.70;3.50;;;4.20;33.70;;;;;;5074821;28;20172;-50
2022/03/09 00:09:32;;;;;;;4.80;2.83;;;4.20;33.50;;;;;;5075102;28;20612;-50
2022/03/09 00:11:58;;;;;;;5.07;2.90;;;4.20;33.70;;;;;;5073102;28;20251;-50
2022/03/09 00:14:23;;;;;;;4.03;2.30;;;4.20;33.60;;;;;;5074008;28;20264;-50
2022/03/09 00:16:50;;;;;;;5.50;3.97;;;4.10;33.60;;;;;;5073150;28;20165;-50
2022/03/09 00:19:16;;;;;;;8.55;2.50;;;4.10;33.40;;;;;;5074601;28;20180;-50
2022/03/09 00:21:42;;;;;;;5.25;3.38;;;5.30;34.00;;;;;;5073023;28;20172;-50
2022/03/09 00:24:08;;;;;;;5.88;2.85;;;4.10;33.70;;;;;;5072992;28;20169;-50
2022/03/09 00:26:34;;;;;;;3.50;2.60;;;4.00;33.60;;;;;;5074200;28;20276;-50
2022/03/09 00:29:00;;;;;;;2.20;2.00;;;4.00;33.60;;;;;;5074699;28;20692;-50
2022/03/09 00:31:25;;;;;;;4.60;4.20;;;4.00;33.60;;;;;;5074645;28;20238;-50
2022/03/09 00:33:51;;;;;;;1.93;1.73;;;4.00;33.50;;;;;;5072724;28;20238;-50
2022/03/09 00:36:17;;;;;;;3.73;2.97;;;4.00;33.80;;;;;;5072771;28;20196;-50
2022/03/09 00:38:42;;;;;;;7.73;3.87;;;3.90;33.80;;;;;;5072714;28;20172;-50
2022/03/09 00:41:08;;;;;;;5.70;4.10;;;3.90;33.90;;;;;;5073933;28;20168;-50
2022/03/09 00:43:36;;;;;;;2.67;1.97;;;3.90;34.10;;;;;;5072660;28;20188;-51
2022/03/09 00:46:02;;;;;;;7.65;2.53;;;3.90;34.20;;;;;;5074397;28;20175;-50
2022/03/09 00:48:28;;;;;;;4.05;2.05;;;3.90;34.10;;;;;;5073813;28;20222;-50
2022/03/09 00:50:54;;;;;;;5.93;3.20;;;3.90;34.30;;;;;;5073814;28;20169;-51
2022/03/09 00:53:19;;;;;;;3.77;3.17;;;3.90;34.30;;;;;;5073806;28;20197;-50
2022/03/09 00:55:45;;;;;;;8.33;2.40;;;3.90;34.00;;;;;;5074027;28;20169;-50
2022/03/09 00:58:11;;;;;;;3.53;1.90;;;3.80;34.10;;;;;;5072469;28;20177;-50
2022/03/09 01:00:36;;;;;;;2.90;1.60;;;3.90;34.10;;;;;;5072454;28;20176;-50
2022/03/09 01:03:02;;;;;;;5.53;3.80;;;3.90;34.20;;;;;;5073910;28;20632;-50
2022/03/09 01:05:28;;;;;;;4.70;2.73;;;3.90;34.20;;;;;;5072349;28;20214;-50
2022/03/09 01:07:53;;;;;;;8.20;4.03;;;3.90;34.00;;;;;;5072338;28;20168;-50
2022/03/09 01:10:19;;;;;;;2.70;2.40;;;3.90;34.00;;;;;;5073855;28;20165;-50
2022/03/09 01:12:47;;;;;;;2.77;2.37;;;3.80;34.00;;;;;;5072036;28;20228;-50
2022/03/09 01:15:13;;;;;;;3.38;3.10;;;3.80;34.10;;;;;;5073513;28;20239;-51
2022/03/09 01:17:39;;;;;;;4.65;3.85;;;3.80;34.20;;;;;;5072214;28;20230;-50
2022/03/09 01:20:06;;;;;;;4.97;3.27;;;4.80;34.60;;;;;;5073742;28;20571;-50
2022/03/09 01:22:32;;;;;;;5.28;2.53;;;3.70;34.10;;;;;;5073655;28;20413;-50
2022/03/09 01:24:58;;;;;;;4.37;2.00;;;3.70;34.20;;;;;;5071917;28;20263;-50
2022/03/09 01:27:24;;;;;;;6.85;6.25;;;3.70;34.20;;;;;;5073711;28;20414;-50
2022/03/09 01:29:49;;;;;;;3.43;2.30;;;4.30;34.60;;;;;;5073444;28;20176;-51
2022/03/09 01:32:15;;;;;;;3.73;2.30;;;3.70;34.40;;;;;;5071977;28;20175;-50
2022/03/09 01:34:41;;;;;;;4.00;3.70;;;3.60;34.10;;;;;;5074131;28;20212;-50
2022/03/09 01:37:07;;;;;;;4.97;2.97;;;3.60;34.00;;;;;;5072060;28;20172;-50
2022/03/09 01:39:33;;;;;;;5.13;3.53;;;3.60;34.50;;;;;;5072014;28;20168;-50
2022/03/09 01:41:58;;;;;;;4.30;3.40;;;3.50;34.50;;;;;;5071995;28;20184;-50
2022/03/09 01:44:25;;;;;;;4.17;3.40;;;3.50;34.70;;;;;;5073505;28;20199;-51
2022/03/09 01:46:52;;;;;;;5.43;4.65;;;3.50;34.50;;;;;;5071986;28;20207;-50
2022/03/09 01:49:20;;;;;;;12.57;6.13;;;4.40;34.80;;;;;;5073470;28;20196;-50
2022/03/09 01:51:48;;;;;;;5.90;4.05;;;3.40;34.50;;;;;;5073156;28;20636;-50
2022/03/09 01:54:15;;;;;;;3.13;2.28;;;3.30;34.60;;;;;;5072968;28;20239;-50
2022/03/09 01:56:42;;;;;;;3.30;3.00;;;3.30;34.50;;;;;;5073666;28;20175;-50
2022/03/09 01:59:09;;;;;;;4.50;2.08;;;3.30;34.60;;;;;;5073119;28;20167;-50
2022/03/09 02:01:36;;;;;;;5.43;3.03;;;3.20;34.70;;;;;;5073098;28;20631;-50
2022/03/09 02:04:03;;;;;;;2.65;1.70;;;3.20;35.10;;;;;;5073066;28;20169;-50
2022/03/09 02:06:31;;;;;;;2.17;1.70;;;3.10;34.70;;;;;;5073340;28;20663;-50
2022/03/09 02:11:43;;;;;;;3.10;2.15;;;3.10;34.90;;;;;;5072222;28;20223;-50
2022/03/09 02:14:28;;;;;;;2.47;2.07;;;3.10;34.80;;;;;;5073231;28;20197;-50
2022/03/09 02:16:55;;;;;;;7.72;2.75;;;3.10;34.80;;;;;;5073453;28;20168;-50
2022/03/09 02:19:20;;;;;;;4.97;2.60;;;3.00;35.10;;;;;;5073473;28;20165;-50
2022/03/09 02:21:50;;;;;;;2.67;1.77;;;4.20;35.30;;;;;;5073193;28;20625;-50
2022/03/09 02:24:16;;;;;;;4.22;1.90;;;3.00;35.00;;;;;;5073170;28;20407;-50
2022/03/09 02:26:42;;;;;;;7.03;4.55;;;3.00;34.90;;;;;;5072862;28;20169;-50
2022/03/09 02:29:08;;;;;;;7.68;2.88;;;4.10;35.30;;;;;;5072795;28;20176;-50
2022/03/09 02:31:34;;;;;;;4.70;3.03;;;3.00;34.80;;;;;;5073044;28;20168;-50
2022/03/09 02:34:00;;;;;;;2.58;2.20;;;2.90;35.00;;;;;;5071479;28;20283;-50
2022/03/09 02:36:26;;;;;;;3.70;1.27;;;2.90;35.00;;;;;;5073824;28;20695;-50
2022/03/09 02:38:52;;;;;;;2.23;1.97;;;2.90;35.30;;;;;;5075011;28;20172;-50
2022/03/09 02:41:17;;;;;;;3.80;2.53;;;2.90;35.20;;;;;;5074993;28;20200;-50
2022/03/09 02:43:43;;;;;;;4.27;2.60;;;2.90;35.00;;;;;;5076455;28;20256;-50
2022/03/09 02:46:09;;;;;;;5.03;3.73;;;2.90;34.90;;;;;;5074888;28;20179;-50
2022/03/09 02:48:34;;;;;;;2.50;2.20;;;3.40;35.00;;;;;;5076089;28;20176;-50
2022/03/09 02:51:00;;;;;;;4.93;4.47;;;2.90;34.90;;;;;;5076099;28;20178;-50
2022/03/09 02:53:26;;;;;;;4.97;3.60;;;3.30;35.20;;;;;;5074683;28;20286;-50
2022/03/09 02:55:51;;;;;;;2.90;2.27;;;2.90;35.10;;;;;;5076558;28;20621;-50
2022/03/09 02:58:17;;;;;;;3.27;2.13;;;2.90;35.10;;;;;;5074688;28;20168;-50
2022/03/09 03:00:43;;;;;;;5.57;3.03;;;2.90;35.40;;;;;;5076494;28;20164;-50
2022/03/09 03:03:09;;;;;;;6.40;3.53;;;2.80;35.40;;;;;;5075871;28;20168;-50
2022/03/09 03:05:34;;;;;;;3.07;2.00;;;2.80;35.20;;;;;;5074921;28;20164;-50
2022/03/09 03:08:00;;;;;;;3.03;2.10;;;2.80;35.00;;;;;;5074530;28;20643;-50
2022/03/09 03:10:25;;;;;;;1.33;1.20;;;3.20;35.20;;;;;;5075738;28;20172;-50
2022/03/09 03:12:51;;;;;;;2.13;1.90;;;2.80;35.00;;;;;;5075484;28;20231;-50
2022/03/09 03:15:17;;;;;;;6.47;3.40;;;2.70;35.30;;;;;;5074338;28;20206;-50
2022/03/09 03:17:42;;;;;;;2.27;2.07;;;2.70;35.30;;;;;;5075851;28;20167;-50
2022/03/09 03:20:09;;;;;;;3.60;3.27;;;2.60;35.40;;;;;;5075789;28;20225;-50
2022/03/09 03:22:34;;;;;;;1.50;1.30;;;2.60;35.40;;;;;;5075482;28;20627;-50
2022/03/09 03:25:00;;;;;;;3.90;2.13;;;2.60;35.50;;;;;;5075436;28;20171;-50
2022/03/09 03:27:26;;;;;;;5.57;4.53;;;2.60;35.60;;;;;;5075676;28;20248;-50
2022/03/09 03:29:51;;;;;;;4.00;1.87;;;2.60;35.50;;;;;;5075607;28;20458;-50
2022/03/09 03:32:17;;;;;;;6.40;2.33;;;3.90;36.00;;;;;;5075289;28;20188;-50
2022/03/09 03:34:43;;;;;;;3.37;2.30;;;3.50;36.10;;;;;;5075189;28;20200;-50
2022/03/09 03:37:08;;;;;;;2.03;1.40;;;3.30;35.90;;;;;;5073929;28;20201;-50
2022/03/09 03:39:34;;;;;;;1.97;1.53;;;2.50;35.50;;;;;;5073873;28;20173;-50
2022/03/09 03:42:00;;;;;;;2.87;2.00;;;2.50;35.40;;;;;;5075350;28;20171;-50
2022/03/09 03:44:25;;;;;;;4.20;2.17;;;2.50;35.40;;;;;;5073761;28;20175;-50
2022/03/09 03:46:51;;;;;;;3.00;2.43;;;2.50;36.30;;;;;;5073701;28;20226;-50
2022/03/09 03:49:17;;;;;;;2.90;1.90;;;2.40;35.50;;;;;;5075147;28;20255;-50
2022/03/09 03:51:42;;;;;;;2.80;1.50;;;2.40;35.50;;;;;;5073659;28;20531;-50
2022/03/09 03:54:09;;;;;;;1.80;1.60;;;2.40;36.00;;;;;;5073580;28;20241;-50
2022/03/09 03:56:34;;;;;;;4.82;1.70;;;2.30;35.90;;;;;;5073577;28;20552;-50
2022/03/09 03:59:00;;;;;;;6.80;3.20;;;2.30;35.90;;;;;;5074844;28;20202;-50
2022/03/09 04:01:26;;;;;;;2.80;1.57;;;2.30;35.90;;;;;;5075038;28;20613;-50
2022/03/09 04:03:51;;;;;;;3.63;3.10;;;2.30;36.00;;;;;;5074951;28;20219;-50
2022/03/09 04:06:18;;;;;;;2.80;1.73;;;2.30;36.30;;;;;;5074891;28;20516;-50
2022/03/09 04:08:43;;;;;;;2.55;2.10;;;2.20;36.20;;;;;;5074748;28;20513;-50
2022/03/09 04:11:09;;;;;;;6.10;2.27;;;3.10;36.60;;;;;;5073012;28;20176;-50
2022/03/09 04:13:35;;;;;;;5.63;2.03;;;3.20;36.90;;;;;;5073095;28;20199;-50
2022/03/09 04:16:00;;;;;;;5.20;3.17;;;2.10;36.60;;;;;;5074680;28;20635;-50
2022/03/09 04:18:26;;;;;;;1.57;1.13;;;2.20;36.50;;;;;;5074607;28;20174;-50
2022/03/09 04:20:51;;;;;;;2.20;1.60;;;3.30;36.70;;;;;;5074571;28;20169;-50
2022/03/09 04:23:17;;;;;;;3.87;2.87;;;2.10;36.00;;;;;;5074509;28;20195;-50
2022/03/09 04:25:43;;;;;;;3.90;2.50;;;2.10;36.20;;;;;;5074484;28;20183;-50
2022/03/09 04:28:08;;;;;;;2.60;1.80;;;2.10;36.20;;;;;;5074449;28;20163;-50
2022/03/09 04:30:34;;;;;;;1.70;1.60;;;2.10;36.10;;;;;;5074363;28;20164;-50
2022/03/09 04:33:00;;;;;;;2.13;1.70;;;2.10;36.00;;;;;;5073959;28;20313;-50
2022/03/09 04:35:26;;;;;;;4.90;2.73;;;3.20;36.40;;;;;;5074336;28;20243;-50
2022/03/09 04:37:52;;;;;;;3.57;1.23;;;2.20;36.00;;;;;;5074007;28;20479;-50
2022/03/09 04:40:17;;;;;;;2.33;2.13;;;2.10;36.20;;;;;;5073931;28;20463;-50
2022/03/09 04:42:43;;;;;;;4.43;4.03;;;2.10;36.50;;;;;;5074437;28;20170;-50
2022/03/09 04:45:10;;;;;;;4.57;1.43;;;2.10;36.90;;;;;;5074118;28;20509;-50
2022/03/09 04:47:35;;;;;;;4.70;3.03;;;2.10;36.20;;;;;;5072571;28;20175;-50
2022/03/09 04:50:01;;;;;;;4.10;2.23;;;3.10;36.30;;;;;;5073934;28;20718;-50
2022/03/09 04:52:27;;;;;;;3.17;2.88;;;2.10;35.90;;;;;;5074010;28;20258;-50
2022/03/09 04:54:53;;;;;;;6.93;3.60;;;2.10;35.90;;;;;;5073992;28;20258;-50
2022/03/09 04:57:19;;;;;;;1.57;1.07;;;2.00;35.90;;;;;;5072457;28;20171;-50
2022/03/09 04:59:44;;;;;;;2.60;2.03;;;2.00;35.90;;;;;;5071958;28;20562;-50
2022/03/09 05:02:10;;;;;;;3.23;1.83;;;2.00;35.80;;;;;;5073673;28;20451;-50
2022/03/09 05:04:36;;;;;;;5.97;2.63;;;2.00;35.70;;;;;;5073615;28;20167;-50
2022/03/09 05:07:02;;;;;;;1.80;1.40;;;2.00;35.80;;;;;;5073847;28;20754;-50
2022/03/09 05:09:28;;;;;;;6.90;1.92;;;2.00;35.70;;;;;;5073782;28;20403;-50
2022/03/09 05:11:54;;;;;;;8.30;4.07;;;2.90;36.20;;;;;;5073343;28;20227;-50
2022/03/09 05:14:20;;;;;;;3.33;2.70;;;2.00;35.70;;;;;;5073434;28;20453;-50
2022/03/09 05:16:45;;;;;;;2.80;1.40;;;2.00;36.00;;;;;;5073684;28;20197;-50
2022/03/09 05:19:11;;;;;;;1.87;1.60;;;2.00;36.40;;;;;;5072156;28;20172;-50
2022/03/09 05:21:37;;;;;;;2.58;2.38;;;2.00;36.50;;;;;;5073956;28;20274;-50
2022/03/09 05:24:03;;;;;;;3.80;1.73;;;1.90;36.30;;;;;;5073938;28;20616;-50
2022/03/09 05:26:29;;;;;;;3.33;2.42;;;2.00;36.20;;;;;;5073646;28;20171;-50
2022/03/09 05:28:57;;;;;;;4.17;1.77;;;2.00;36.30;;;;;;5074205;28;20651;-50
2022/03/09 05:31:23;;;;;;;2.80;2.00;;;2.00;36.20;;;;;;5073782;28;20448;-50
2022/03/09 05:34:07;;;;;;;2.78;1.60;;;2.00;36.20;;;;;;5072613;28;20677;-50
2022/03/09 05:36:33;;;;;;;4.93;3.13;;;2.00;36.30;;;;;;5073185;28;20176;-50
2022/03/09 05:38:58;;;;;;;2.23;1.73;;;2.00;36.70;;;;;;5073411;28;20171;-50
2022/03/09 05:41:24;;;;;;;2.90;2.10;;;2.00;36.20;;;;;;5071804;28;20171;-50
2022/03/09 05:43:50;;;;;;;6.33;2.90;;;2.00;36.20;;;;;;5073390;28;20652;-50
2022/03/09 05:46:16;;;;;;;7.33;2.17;;;3.10;36.50;;;;;;5073416;28;20533;-50
2022/03/09 05:48:42;;;;;;;2.58;1.90;;;2.10;36.20;;;;;;5071777;28;20432;-50
2022/03/09 05:51:08;;;;;;;2.45;2.25;;;2.10;36.10;;;;;;5072161;28;20179;-50
2022/03/09 05:53:34;;;;;;;3.17;2.17;;;2.10;35.90;;;;;;5072853;28;20706;-50
2022/03/09 05:56:00;;;;;;;2.97;2.67;;;2.60;36.10;;;;;;5073069;28;20436;-49
2022/03/09 05:58:25;;;;;;;2.23;1.80;;;2.10;36.20;;;;;;5071708;28;20281;-50
2022/03/09 06:00:51;;;;;;;1.90;1.73;;;2.10;36.20;;;;;;5072335;28;20450;-50
2022/03/09 06:03:17;;;;;;;1.60;1.20;;;2.10;36.20;;;;;;5073238;28;20169;-50
2022/03/09 06:05:42;;;;;;;2.53;1.30;;;2.20;36.20;;;;;;5073207;28;20171;-50
2022/03/09 06:08:08;;;;;;;3.13;1.80;;;2.20;36.60;;;;;;5073178;28;20191;-50
2022/03/09 06:10:34;;;;;;;12.13;4.30;;;2.20;36.70;;;;;;5072867;28;20209;-50
2022/03/09 06:12:59;;;;;;;5.33;1.87;;;2.30;36.60;;;;;;5076086;28;20219;-50
2022/03/09 06:15:25;;;;;;;7.23;2.00;;;2.30;36.40;;;;;;5076803;28;20175;-50
2022/03/09 06:17:51;;;;;;;10.93;2.27;;;2.40;36.40;;;;;;5076770;28;20250;-50
2022/03/09 06:20:20;;;;;;;7.75;3.45;;;2.40;36.20;;;;;;5076554;28;20184;-50
2022/03/09 06:22:46;;;;;;;6.82;3.30;;;2.50;36.20;;;;;;5076695;28;20651;-49
2022/03/09 06:25:14;;;;;;;4.03;2.92;;;3.70;36.80;;;;;;5075125;28;20206;-50
2022/03/09 06:27:51;;;;;;;8.95;5.40;;;2.80;36.40;;;;;;5076613;28;20628;-50
2022/03/09 06:30:16;;;;;;;6.97;5.22;;;3.00;36.20;;;;;;5076328;28;20156;-50
2022/03/09 06:32:43;;;;;;;11.40;7.25;;;3.10;36.00;;;;;;5075136;28;20224;-50
2022/03/09 06:35:10;;;;;;;20.13;6.75;;;3.30;36.00;;;;;;5074842;28;20694;-50
2022/03/09 06:37:36;;;;;;;9.27;6.43;;;3.40;35.90;;;;;;5076431;28;20172;-50
2022/03/09 06:40:03;;;;;;;6.70;5.23;;;4.10;36.00;;;;;;5074872;28;20640;-50
2022/03/09 06:42:29;;;;;;;4.63;3.88;;;3.60;35.70;;;;;;5076015;28;20414;-49
2022/03/09 06:44:56;;;;;;;10.30;4.13;;;3.60;35.80;;;;;;5076314;28;20292;-50
2022/03/09 06:47:22;;;;;;;4.13;3.05;;;3.70;35.80;;;;;;5076089;28;20449;-50
2022/03/09 06:49:48;;;;;;;6.33;3.77;;;3.70;35.80;;;;;;5074647;28;20168;-50
2022/03/09 06:52:14;;;;;;;10.43;4.95;;;3.80;35.70;;;;;;5075921;28;20165;-50
2022/03/09 06:54:40;;;;;;;5.20;3.05;;;3.90;35.70;;;;;;5074546;28;20338;-50
2022/03/09 06:57:06;;;;;;;5.93;3.33;;;4.00;35.60;;;;;;5076145;28;20498;-50
2022/03/09 06:59:32;;;;;;;3.60;2.63;;;4.10;35.70;;;;;;5076027;28;20263;-50
2022/03/09 07:01:57;;;;;;;6.63;4.93;;;4.20;35.70;;;;;;5076041;28;20239;-50
2022/03/09 07:04:23;;;;;;;3.63;2.40;;;4.30;35.60;;;;;;5075670;28;20161;-50
2022/03/09 07:06:49;;;;;;;5.43;4.27;;;4.50;35.60;;;;;;5076203;28;20574;-50
2022/03/09 07:09:15;;;;;;;4.30;3.37;;;5.40;36.50;;;;;;5075950;28;20160;-50
2022/03/09 07:11:44;;;;;;;2.40;2.20;;;4.70;35.60;;;;;;5075415;28;20681;-50
2022/03/09 07:14:10;;;;;;;3.25;3.03;;;4.80;35.60;;;;;;5075605;28;20553;-50
2022/03/09 07:16:36;;;;;;;7.07;4.10;;;5.10;35.70;;;;;;5075529;28;20203;-50
2022/03/09 07:19:02;;;;;;;6.80;3.80;;;5.10;35.70;;;;;;5075647;28;20503;-50
2022/03/09 07:21:28;;;;;;;6.35;3.90;;;5.20;35.50;;;;;;5074109;28;20720;-50
2022/03/09 07:23:54;;;;;;;5.00;2.83;;;5.40;35.60;;;;;;5075225;28;20300;-50
2022/03/09 07:26:19;;;;;;;6.40;4.23;;;5.50;35.70;;;;;;5074069;28;20533;-50
2022/03/09 07:28:45;;;;;;;12.70;4.70;;;5.60;35.50;;;;;;5075594;28;20204;-50
2022/03/09 07:31:11;;;;;;;3.30;2.87;;;5.80;35.50;;;;;;5075693;28;20161;-50
2022/03/09 07:33:36;;;;;;;4.17;3.17;;;6.00;35.50;;;;;;5075683;28;20184;-50
2022/03/09 07:36:03;;;;;;;7.30;3.50;;;6.10;35.70;;;;;;5073791;28;20637;-50
2022/03/09 07:38:29;;;;;;;7.13;4.35;;;6.30;35.70;;;;;;5075629;28;20161;-50
2022/03/09 07:40:54;;;;;;;7.03;4.13;;;6.40;35.50;;;;;;5073738;28;20180;-50
2022/03/09 07:43:21;;;;;;;4.00;3.10;;;6.60;35.30;;;;;;5075273;28;20168;-50
2022/03/09 07:45:47;;;;;;;7.97;4.95;;;6.70;35.10;;;;;;5075267;28;20624;-50
2022/03/09 07:48:13;;;;;;;5.07;4.25;;;6.90;34.90;;;;;;5074799;28;20173;-50
2022/03/09 07:50:39;;;;;;;10.03;3.57;;;7.10;34.70;;;;;;5075354;28;20172;-50
2022/03/09 07:53:05;;;;;;;5.05;3.30;;;7.20;34.10;;;;;;5074929;28;20447;-50
2022/03/09 07:55:31;;;;;;;10.43;3.80;;;7.30;34.70;;;;;;5075399;28;20633;-50
2022/03/09 07:57:57;;;;;;;4.70;2.73;;;7.50;34.10;;;;;;5074992;28;20168;-51
2022/03/09 08:00:23;;;;;;;5.47;3.60;;;7.70;34.30;;;;;;5074902;28;20180;-50
2022/03/09 08:02:49;;;;;;;7.83;3.87;;;7.80;34.00;;;;;;5074923;28;20248;-51
2022/03/09 08:05:15;;;;;;;3.10;2.80;;;8.00;33.80;;;;;;5073289;28;20451;-50
2022/03/09 08:07:42;;;;;;;5.43;2.85;;;8.20;33.20;;;;;;5074756;28;20676;-50
2022/03/09 08:10:09;;;;;;;7.93;4.10;;;8.30;33.50;;;;;;5074497;28;20181;-51
2022/03/09 08:12:36;;;;;;;4.40;2.33;;;8.50;33.40;;;;;;5074105;28;20221;-50
2022/03/09 08:15:03;;;;;;;7.38;4.00;;;8.70;33.20;;;;;;5074573;28;20196;-51
2022/03/09 08:17:29;;;;;;;7.45;4.38;;;8.90;33.70;;;;;;5074330;28;20169;-50
2022/03/09 08:19:55;;;;;;;4.95;3.15;;;9.10;32.30;;;;;;5074562;28;20252;-50
2022/03/09 08:22:21;;;;;;;4.23;2.70;;;9.10;31.70;;;;;;5074493;28;20247;-50
2022/03/09 08:24:47;;;;;;;6.75;3.83;;;9.30;32.10;;;;;;5072958;28;20422;-50
2022/03/09 08:27:13;;;;;;;4.87;3.60;;;9.30;30.90;;;;;;5074438;28;20179;-51
2022/03/09 08:29:39;;;;;;;4.45;3.28;;;9.40;31.50;;;;;;5074441;28;21000;-50
2022/03/09 08:32:06;;;;;;;6.30;3.77;;;9.60;31.80;;;;;;5074293;28;20174;-50
2022/03/09 08:34:31;;;;;;;5.10;4.18;;;9.80;31.10;;;;;;5073202;28;20446;-50
2022/03/09 08:36:57;;;;;;;5.20;3.60;;;10.00;31.50;;;;;;5072694;28;20187;-50
2022/03/09 08:39:23;;;;;;;6.53;2.97;;;10.20;31.40;;;;;;5072666;28;20246;-51
2022/03/09 08:41:48;;;;;;;9.17;5.93;;;10.30;31.30;;;;;;5074143;28;20625;-51
2022/03/09 08:44:16;;;;;;;6.13;3.20;;;10.60;30.70;;;;;;5072481;28;20846;-51
2022/03/09 08:46:42;;;;;;;8.68;3.95;;;10.80;31.00;;;;;;5074069;28;20239;-50
2022/03/09 08:49:07;;;;;;;5.43;4.15;;;11.00;30.40;;;;;;5072543;28;20251;-50
2022/03/09 08:51:33;;;;;;;6.43;4.40;;;11.10;29.90;;;;;;5073780;28;20203;-50
2022/03/09 08:54:00;;;;;;;4.72;2.90;;;11.30;29.10;;;;;;5073801;28;20438;-50
2022/03/09 08:56:28;;;;;;;9.05;3.88;;;11.50;28.70;;;;;;5073623;28;20260;-51
2022/03/09 08:58:55;;;;;;;4.00;3.38;;;11.60;29.30;;;;;;5073958;28;20196;-51
2022/03/09 09:01:24;;;;;;;7.60;3.60;;;11.90;28.30;;;;;;5073846;28;20165;-50
2022/03/09 09:03:49;;;;;;;6.90;5.22;;;12.00;29.00;;;;;;5073839;28;20161;-50
2022/03/09 09:06:15;;;;;;;6.20;3.33;;;12.20;28.90;;;;;;5072325;28;20173;-50
2022/03/09 09:08:41;;;;;;;8.30;4.30;;;12.40;28.50;;;;;;5074106;28;20164;-50
2022/03/09 09:11:07;;;;;;;6.00;2.77;;;12.50;28.20;;;;;;5073670;28;20165;-50
2022/03/09 09:13:32;;;;;;;3.50;2.87;;;12.70;28.50;;;;;;5072021;28;20528;-50
2022/03/09 09:15:58;;;;;;;4.57;3.10;;;12.90;27.40;;;;;;5073719;28;20255;-50
2022/03/09 09:18:24;;;;;;;5.77;3.70;;;13.10;28.10;;;;;;5073739;28;20587;-50
2022/03/09 09:20:50;;;;;;;5.70;3.40;;;13.30;27.60;;;;;;5073979;28;20407;-50
2022/03/09 09:23:16;;;;;;;6.07;2.70;;;13.40;26.70;;;;;;5073965;28;20604;-50
2022/03/09 09:25:42;;;;;;;4.80;3.17;;;13.60;26.90;;;;;;5073539;28;20173;-51
2022/03/09 09:28:08;;;;;;;4.17;3.30;;;13.80;26.60;;;;;;5073923;28;20431;-50
2022/03/09 09:30:34;;;;;;;4.27;2.90;;;14.00;26.20;;;;;;5073581;28;20161;-51
2022/03/09 09:33:00;;;;;;;4.80;3.00;;;14.10;26.50;;;;;;5073467;28;20525;-50
2022/03/09 09:35:26;;;;;;;5.10;3.47;;;14.20;26.20;;;;;;5071958;28;20179;-50
2022/03/09 09:37:52;;;;;;;4.50;2.80;;;14.30;23.00;;;;;;5073309;28;20169;-51
2022/03/09 09:40:18;;;;;;;3.75;2.95;;;14.20;23.30;;;;;;5073812;28;20446;-50
2022/03/09 09:42:45;;;;;;;5.03;3.07;;;14.20;23.00;;;;;;5073167;28;20200;-50
2022/03/09 09:45:11;;;;;;;4.50;2.95;;;14.10;22.10;;;;;;5073891;28;20418;-50
2022/03/09 09:47:37;;;;;;;6.07;3.13;;;14.10;23.50;;;;;;5077517;28;20169;-50
2022/03/09 09:50:08;;;;;;;6.55;3.88;;;14.30;23.40;;;;;;5077438;28;20160;-50
2022/03/09 09:52:36;;;;;;;9.60;2.90;;;14.40;23.70;;;;;;5077417;28;20172;-51
2022/03/09 09:55:04;;;;;;;5.30;3.25;;;14.50;23.20;;;;;;5077874;28;20249;-50
2022/03/09 09:57:31;;;;;;;7.70;2.42;;;14.70;23.40;;;;;;5077631;28;20225;-50
2022/03/09 09:59:57;;;;;;;5.35;3.58;;;14.70;21.40;;;;;;5077011;28;20232;-50
2022/03/09 10:02:23;;;;;;;6.85;2.90;;;14.80;22.90;;;;;;5077237;28;20180;-50
2022/03/09 10:04:50;;;;;;;7.27;3.30;;;14.90;22.60;;;;;;5077156;28;20169;-50
2022/03/09 10:07:17;;;;;;;8.15;3.60;;;15.10;22.90;;;;;;5077113;28;20226;-50
2022/03/09 10:09:43;;;;;;;4.78;4.03;;;15.20;22.20;;;;;;5077033;28;20180;-50
2022/03/09 10:12:12;;;;;;;6.07;3.08;;;15.40;22.70;;;;;;5076354;28;20228;-50
2022/03/09 10:14:47;;;;;;;6.47;2.47;;;15.50;21.70;;;;;;5076846;28;20193;-50
2022/03/09 10:17:32;;;;;;;4.43;2.40;;;15.70;21.50;;;;;;5076952;28;20172;-51
2022/03/09 10:20:10;;;;;;;5.82;3.50;;;15.70;19.90;;;;;;5077230;28;20588;-50
2022/03/09 10:22:41;;;;;;;3.58;2.28;;;15.70;19.90;;;;;;5076860;28;20239;-50
2022/03/09 10:25:09;;;;;;;5.18;2.20;;;15.80;21.70;;;;;;5076491;28;20208;-51
2022/03/09 10:27:41;;;;;;;4.65;2.92;;;15.90;20.00;;;;;;5076469;28;20219;-50
2022/03/09 10:30:17;;;;;;;9.35;4.20;;;16.00;21.10;;;;;;5076415;28;20644;-50
2022/03/09 10:32:42;;;;;;;5.32;2.85;;;15.90;19.30;;;;;;5076292;28;20148;-50
2022/03/09 10:35:09;;;;;;;6.27;2.53;;;15.80;21.00;;;;;;5075058;28;20172;-50
2022/03/09 10:37:39;;;;;;;4.47;2.75;;;15.90;19.50;;;;;;5076245;28;20175;-50
2022/03/09 10:40:12;;;;;;;6.20;2.85;;;16.10;21.70;;;;;;5076542;28;20520;-50
2022/03/09 10:42:38;;;;;;;3.97;2.10;;;16.40;22.10;;;;;;5076531;28;20153;-50
2022/03/09 10:45:07;;;;;;;3.83;2.30;;;16.60;20.40;;;;;;5076200;28;20165;-50
2022/03/09 10:47:44;;;;;;;2.90;1.60;;;16.80;20.90;;;;;;5076300;28;20581;-50
2022/03/09 10:50:14;;;;;;;3.42;2.03;;;16.90;19.40;;;;;;5074813;28;20165;-50
2022/03/09 10:52:44;;;;;;;3.15;1.52;;;16.90;18.80;;;;;;5075963;28;20160;-51
2022/03/09 10:55:26;;;;;;;3.05;1.70;;;16.90;18.50;;;;;;5076257;28;20176;-51
2022/03/09 10:58:05;;;;;;;5.13;2.70;;;16.80;18.50;;;;;;5075209;28;20160;-50
2022/03/09 11:00:41;;;;;;;5.68;3.47;;;16.90;19.90;;;;;;5075912;28;20636;-50
2022/03/09 11:03:09;;;;;;;3.42;2.50;;;17.10;19.90;;;;;;5075959;28;20549;-50
2022/03/09 11:05:36;;;;;;;4.97;2.25;;;17.30;19.30;;;;;;5076010;28;20207;-50
2022/03/09 11:08:03;;;;;;;6.28;3.58;;;17.50;18.90;;;;;;5075716;28;20544;-51
2022/03/09 11:10:29;;;;;;;4.28;2.33;;;17.50;19.60;;;;;;5075957;28;20169;-51
2022/03/09 11:12:56;;;;;;;5.55;3.20;;;17.70;18.70;;;;;;5075362;28;20624;-51
2022/03/09 11:15:23;;;;;;;6.43;3.08;;;17.90;18.70;;;;;;5075590;28;20184;-51
2022/03/09 11:17:49;;;;;;;5.20;2.10;;;18.20;19.80;;;;;;5075781;28;20186;-51
2022/03/09 11:20:15;;;;;;;10.90;3.53;;;18.50;18.80;;;;;;5075813;28;20168;-51
2022/03/09 11:22:42;;;;;;;2.90;2.15;;;18.60;17.50;;;;;;5075810;28;20418;-51
2022/03/09 11:25:09;;;;;;;5.82;2.58;;;18.60;17.50;;;;;;5075671;28;20171;-51
2022/03/09 11:27:42;;;;;;;5.50;2.95;;;18.60;17.70;;;;;;5075627;28;20211;-51
2022/03/09 11:30:24;;;;;;;4.07;3.30;;;18.60;17.70;;;;;;5074485;28;20253;-51
2022/03/09 11:32:51;;;;;;;4.18;2.35;;;18.70;17.90;;;;;;5075162;28;20192;-50
2022/03/09 11:35:34;;;;;;;4.35;3.03;;;18.80;17.50;;;;;;5075139;28;20176;-50
2022/03/09 11:38:01;;;;;;;6.10;2.63;;;19.00;17.30;;;;;;5075461;28;20161;-50
2022/03/09 11:40:27;;;;;;;4.10;2.63;;;19.00;16.60;;;;;;5075393;28;20169;-50
2022/03/09 11:42:53;;;;;;;4.25;3.35;;;19.20;17.50;;;;;;5075306;28;20278;-50
2022/03/09 11:45:29;;;;;;;4.50;2.23;;;19.10;17.50;;;;;;5075304;28;20252;-51
2022/03/09 11:48:14;;;;;;;5.70;3.03;;;19.00;16.70;;;;;;5075511;28;20887;-50
2022/03/09 11:50:46;;;;;;;2.83;1.67;;;19.00;19.00;;;;;;5074968;28;20181;-50
2022/03/09 11:53:12;;;;;;;4.35;2.10;;;19.30;19.20;;;;;;5074821;28;20200;-50
2022/03/09 11:55:37;;;;;;;4.20;3.35;;;19.70;19.90;;;;;;5075378;28;20180;-50
2022/03/09 11:58:12;;;;;;;5.87;3.20;;;20.00;19.20;;;;;;5075066;28;20172;-50
2022/03/09 12:01:00;;;;;;;4.00;2.17;;;20.40;19.20;;;;;;5074980;28;20244;-50
2022/03/09 12:03:37;;;;;;;2.78;2.00;;;20.70;18.90;;;;;;5074947;28;20490;-50
2022/03/09 12:06:02;;;;;;;3.63;2.17;;;20.90;19.10;;;;;;5074821;28;20204;-50
2022/03/09 12:08:45;;;;;;;2.90;1.90;;;21.00;18.20;;;;;;5074469;28;20612;-50
2022/03/09 12:11:11;;;;;;;4.25;1.60;;;21.10;18.00;;;;;;5073203;28;20638;-50
2022/03/09 12:13:46;;;;;;;3.70;1.90;;;21.20;17.10;;;;;;5074191;28;20235;-50
2022/03/09 12:16:14;;;;;;;2.22;1.30;;;21.30;18.00;;;;;;5074347;28;20532;-50
2022/03/09 12:18:57;;;;;;;9.48;2.47;;;21.50;18.10;;;;;;5074645;28;20165;-50
2022/03/09 12:21:26;;;;;;;2.47;1.55;;;21.70;17.20;;;;;;5074575;28;20160;-50
2022/03/09 12:24:00;;;;;;;2.30;1.70;;;21.60;15.80;;;;;;5074531;28;20190;-51
2022/03/09 12:26:41;;;;;;;4.05;2.00;;;21.60;17.10;;;;;;5074221;28;20209;-51
2022/03/09 12:29:21;;;;;;;3.97;2.17;;;21.60;17.90;;;;;;5074395;28;20165;-51
2022/03/09 12:32:02;;;;;;;7.20;4.80;;;21.70;18.20;;;;;;5074132;28;20172;-51
2022/03/09 12:34:43;;;;;;;2.50;1.70;;;21.90;17.80;;;;;;5073949;28;20207;-50
2022/03/09 12:37:12;;;;;;;2.58;1.98;;;21.90;16.50;;;;;;5074291;28;20222;-51
2022/03/09 12:39:38;;;;;;;2.72;2.10;;;21.80;16.60;;;;;;5074018;28;20632;-51
2022/03/09 12:42:05;;;;;;;4.22;2.08;;;21.80;17.00;;;;;;5073982;28;20172;-51
2022/03/09 12:44:33;;;;;;;4.25;2.33;;;21.90;16.90;;;;;;5073905;28;20188;-51
2022/03/09 12:47:03;;;;;;;4.13;2.10;;;21.80;16.70;;;;;;5073956;28;20207;-50
2022/03/09 12:49:31;;;;;;;3.58;2.03;;;21.80;16.50;;;;;;5074068;28;20172;-50
2022/03/09 12:52:00;;;;;;;2.47;1.90;;;21.80;17.10;;;;;;5074188;28;20222;-51
2022/03/09 12:54:36;;;;;;;2.55;1.33;;;21.90;16.30;;;;;;5074229;28;20205;-51
2022/03/09 12:57:29;;;;;;;3.38;1.90;;;22.10;16.20;;;;;;5073696;28;20221;-51